createdAt,value
2023-05-05T00:00:46.881Z,1009.87
2023-05-05T00:01:46.927Z,1009.86
2023-05-05T00:02:47.308Z,1009.87
2023-05-05T00:04:02.520Z,1009.87
2023-05-05T00:04:46.837Z,1009.88
2023-05-05T00:05:47.723Z,1009.88
2023-05-05T00:06:46.846Z,1009.90
2023-05-05T00:07:51.320Z,1009.89
2023-05-05T00:08:46.803Z,1009.88
2023-05-05T00:09:46.791Z,1009.87
2023-05-05T00:10:46.776Z,1009.86
2023-05-05T00:11:46.795Z,1009.84
2023-05-05T00:12:47.205Z,1009.83
2023-05-05T00:13:46.787Z,1009.82
2023-05-05T00:14:46.752Z,1009.81
2023-05-05T00:15:47.500Z,1009.79
2023-05-05T00:16:46.734Z,1009.78
2023-05-05T00:17:46.753Z,1009.78
2023-05-05T00:18:46.978Z,1009.78
2023-05-05T00:19:46.712Z,1009.77
2023-05-05T00:20:47.693Z,1009.75
2023-05-05T00:21:46.676Z,1009.72
2023-05-05T00:22:47.672Z,1009.68
2023-05-05T00:23:46.735Z,1009.64
2023-05-05T00:24:46.684Z,1009.59
2023-05-05T00:25:46.638Z,1009.55
2023-05-05T00:26:46.628Z,1009.52
2023-05-05T00:27:46.909Z,1009.53
2023-05-05T00:28:46.649Z,1009.55
2023-05-05T00:29:46.625Z,1009.57
2023-05-05T00:30:46.673Z,1009.58
2023-05-05T00:31:47.392Z,1009.57
2023-05-05T00:32:46.653Z,1009.56
2023-05-05T00:33:46.561Z,1009.59
2023-05-05T00:34:46.556Z,1009.61
2023-05-05T00:35:46.527Z,1009.59
2023-05-05T00:36:46.491Z,1009.57
2023-05-05T00:37:46.513Z,1009.53
2023-05-05T00:38:46.733Z,1009.54
2023-05-05T00:39:46.512Z,1009.57
2023-05-05T00:40:46.524Z,1009.61
2023-05-05T00:41:46.532Z,1009.61
2023-05-05T00:42:46.652Z,1009.61
2023-05-05T00:43:46.737Z,1009.59
2023-05-05T00:44:47.303Z,1009.59
2023-05-05T00:45:46.497Z,1009.59
2023-05-05T00:46:46.506Z,1009.59
2023-05-05T00:47:46.426Z,1009.59
2023-05-05T00:48:46.396Z,1009.57
2023-05-05T00:49:46.422Z,1009.55
2023-05-05T00:50:46.412Z,1009.54
2023-05-05T00:51:46.412Z,1009.54
2023-05-05T00:52:46.396Z,1009.54
2023-05-05T00:53:46.349Z,1009.54
2023-05-05T00:54:46.324Z,1009.56
2023-05-05T00:55:46.374Z,1009.56
2023-05-05T00:56:46.354Z,1009.55
2023-05-05T00:57:46.614Z,1009.55
2023-05-05T00:58:46.315Z,1009.56
2023-05-05T00:59:46.548Z,1009.56
2023-05-05T01:00:46.284Z,1009.55
2023-05-05T01:01:46.416Z,1009.54
2023-05-05T01:02:46.364Z,1009.54
2023-05-05T01:03:46.285Z,1009.55
2023-05-05T01:04:46.240Z,1009.52
2023-05-05T01:05:46.199Z,1009.51
2023-05-05T01:06:46.270Z,1009.50
2023-05-05T01:07:46.450Z,1009.49
2023-05-05T01:08:46.208Z,1009.48
2023-05-05T01:09:46.431Z,1009.47
2023-05-05T01:10:46.936Z,1009.47
2023-05-05T01:11:46.447Z,1009.48
2023-05-05T01:12:46.178Z,1009.49
2023-05-05T01:13:46.125Z,1009.48
2023-05-05T01:14:46.371Z,1009.48
2023-05-05T01:15:53.761Z,1009.48
2023-05-05T01:16:46.123Z,1009.48
2023-05-05T01:17:46.126Z,1009.47
2023-05-05T01:18:46.074Z,1009.46
2023-05-05T01:19:46.104Z,1009.45
2023-05-05T01:20:46.119Z,1009.44
2023-05-05T01:21:46.066Z,1009.39
2023-05-05T01:22:46.930Z,1009.37
2023-05-05T01:23:46.289Z,1009.34
2023-05-05T01:24:46.264Z,1009.33
2023-05-05T01:25:46.003Z,1009.33
2023-05-05T01:26:46.033Z,1009.32
2023-05-05T01:27:45.999Z,1009.31
2023-05-05T01:28:45.998Z,1009.29
2023-05-05T01:29:46.720Z,1009.28
2023-05-05T01:30:46.001Z,1009.27
2023-05-05T01:31:46.205Z,1009.28
2023-05-05T01:32:46.267Z,1009.28
2023-05-05T01:33:49.554Z,1009.29
2023-05-05T01:34:45.942Z,1009.30
2023-05-05T01:35:45.910Z,1009.30
2023-05-05T01:36:45.903Z,1009.28
2023-05-05T01:37:47.778Z,1009.30
2023-05-05T01:38:45.890Z,1009.31
2023-05-05T01:39:45.877Z,1009.32
2023-05-05T01:40:46.095Z,1009.31
2023-05-05T01:41:45.845Z,1009.30
2023-05-05T01:42:45.862Z,1009.29
2023-05-05T01:43:45.847Z,1009.28
2023-05-05T01:44:45.834Z,1009.27
2023-05-05T01:45:45.868Z,1009.29
2023-05-05T01:46:46.041Z,1009.32
2023-05-05T01:47:45.797Z,1009.33
2023-05-05T01:48:45.784Z,1009.34
2023-05-05T01:49:47.133Z,1009.36
2023-05-05T01:50:45.743Z,1009.38
2023-05-05T01:52:49.938Z,1009.38
2023-05-05T01:52:55.679Z,1009.39
2023-05-05T01:53:55.358Z,1009.38
2023-05-05T01:54:55.415Z,1009.39
2023-05-05T01:55:55.405Z,1009.41
2023-05-05T01:56:55.441Z,1009.42
2023-05-05T01:57:55.390Z,1009.42
2023-05-05T01:58:56.140Z,1009.40
2023-05-05T01:59:55.350Z,1009.38
2023-05-05T02:00:55.683Z,1009.39
2023-05-05T02:01:55.513Z,1009.39
2023-05-05T02:02:55.367Z,1009.39
2023-05-05T02:03:55.306Z,1009.40
2023-05-05T02:04:55.305Z,1009.38
2023-05-05T02:05:57.075Z,1009.41
2023-05-05T02:06:55.266Z,1009.41
2023-05-05T02:07:55.483Z,1009.40
2023-05-05T02:08:55.254Z,1009.40
2023-05-05T02:09:55.234Z,1009.38
2023-05-05T02:10:55.232Z,1009.37
2023-05-05T02:11:55.198Z,1009.36
2023-05-05T02:12:55.241Z,1009.36
2023-05-05T02:13:55.176Z,1009.37
2023-05-05T02:14:55.254Z,1009.38
2023-05-05T02:15:55.417Z,1009.40
2023-05-05T02:16:55.138Z,1009.43
2023-05-05T02:17:55.190Z,1009.44
2023-05-05T02:18:55.173Z,1009.44
2023-05-05T02:19:55.913Z,1009.46
2023-05-05T02:20:55.109Z,1009.45
2023-05-05T02:21:55.175Z,1009.46
2023-05-05T02:22:55.100Z,1009.44
2023-05-05T02:23:55.727Z,1009.45
2023-05-05T02:24:55.083Z,1009.44
2023-05-05T02:25:55.100Z,1009.43
2023-05-05T02:26:55.104Z,1009.43
2023-05-05T02:27:55.050Z,1009.44
2023-05-05T02:28:55.029Z,1009.45
2023-05-05T02:29:55.549Z,1009.44
2023-05-05T02:30:55.059Z,1009.45
2023-05-05T02:31:55.421Z,1009.43
2023-05-05T02:32:55.101Z,1009.41
2023-05-05T02:33:55.364Z,1009.41
2023-05-05T02:34:54.987Z,1009.40
2023-05-05T02:35:54.923Z,1009.38
2023-05-05T02:36:54.993Z,1009.38
2023-05-05T02:37:54.941Z,1009.39
2023-05-05T02:38:54.935Z,1009.40
2023-05-05T02:39:55.010Z,1009.42
2023-05-05T02:40:55.195Z,1009.45
2023-05-05T02:41:54.860Z,1009.48
2023-05-05T02:42:55.269Z,1009.52
2023-05-05T02:43:54.869Z,1009.53
2023-05-05T02:44:54.869Z,1009.55
2023-05-05T02:46:02.853Z,1009.57
2023-05-05T02:46:55.100Z,1009.61
2023-05-05T02:47:54.898Z,1009.63
2023-05-05T02:48:55.562Z,1009.66
2023-05-05T02:49:54.833Z,1009.65
2023-05-05T02:50:54.812Z,1009.62
2023-05-05T02:51:54.793Z,1009.60
2023-05-05T02:52:54.782Z,1009.60
2023-05-05T02:53:54.859Z,1009.60
2023-05-05T02:54:56.636Z,1009.60
2023-05-05T02:55:54.738Z,1009.61
2023-05-05T02:56:54.770Z,1009.62
2023-05-05T02:57:54.716Z,1009.62
2023-05-05T02:58:54.705Z,1009.66
2023-05-05T02:59:54.660Z,1009.64
2023-05-05T03:00:54.704Z,1009.59
2023-05-05T03:01:54.766Z,1009.63
2023-05-05T03:02:54.811Z,1009.68
2023-05-05T03:03:54.742Z,1009.65
2023-05-05T03:04:54.651Z,1009.64
2023-05-05T03:05:54.658Z,1009.66
2023-05-05T03:06:54.687Z,1009.63
2023-05-05T03:07:54.580Z,1009.60
2023-05-05T03:08:54.645Z,1009.60
2023-05-05T03:09:54.651Z,1009.60
2023-05-05T03:10:54.591Z,1009.63
2023-05-05T03:11:54.563Z,1009.66
2023-05-05T03:12:54.584Z,1009.67
2023-05-05T03:13:55.301Z,1009.67
2023-05-05T03:14:54.531Z,1009.66
2023-05-05T03:15:54.572Z,1009.65
2023-05-05T03:16:54.799Z,1009.65
2023-05-05T03:17:54.498Z,1009.66
2023-05-05T03:18:54.505Z,1009.67
2023-05-05T03:19:54.535Z,1009.68
2023-05-05T03:20:54.748Z,1009.69
2023-05-05T03:21:54.430Z,1009.68
2023-05-05T03:22:54.712Z,1009.68
2023-05-05T03:23:54.464Z,1009.70
2023-05-05T03:24:54.436Z,1009.71
2023-05-05T03:25:54.419Z,1009.73
2023-05-05T03:26:54.394Z,1009.76
2023-05-05T03:27:54.344Z,1009.80
2023-05-05T03:28:54.760Z,1009.83
2023-05-05T03:29:54.298Z,1009.83
2023-05-05T03:30:54.346Z,1009.81
2023-05-05T03:31:54.372Z,1009.79
2023-05-05T03:32:54.333Z,1009.76
2023-05-05T03:33:54.494Z,1009.76
2023-05-05T03:34:54.265Z,1009.76
2023-05-05T03:35:54.262Z,1009.76
2023-05-05T03:36:54.490Z,1009.75
2023-05-05T03:37:54.214Z,1009.72
2023-05-05T03:38:54.464Z,1009.72
2023-05-05T03:39:54.238Z,1009.73
2023-05-05T03:40:54.475Z,1009.75
2023-05-05T03:41:54.180Z,1009.74
2023-05-05T03:42:54.408Z,1009.73
2023-05-05T03:43:54.150Z,1009.75
2023-05-05T03:44:54.206Z,1009.75
2023-05-05T03:46:01.693Z,1009.75
2023-05-05T03:46:54.128Z,1009.76
2023-05-05T03:47:54.410Z,1009.77
2023-05-05T03:48:54.139Z,1009.79
2023-05-05T03:49:54.077Z,1009.80
2023-05-05T03:50:54.092Z,1009.81
2023-05-05T03:51:54.459Z,1009.84
2023-05-05T03:52:54.072Z,1009.87
2023-05-05T03:53:57.803Z,1009.88
2023-05-05T03:54:54.025Z,1009.88
2023-05-05T03:55:55.731Z,1009.89
2023-05-05T03:56:54.051Z,1009.90
2023-05-05T03:57:54.295Z,1009.90
2023-05-05T03:58:54.027Z,1009.92
2023-05-05T03:59:54.784Z,1009.92
2023-05-05T04:00:54.016Z,1009.95
2023-05-05T04:01:57.655Z,1009.97
2023-05-05T04:02:54.043Z,1009.99
2023-05-05T04:03:54.255Z,1010.00
2023-05-05T04:04:53.945Z,1009.99
2023-05-05T04:05:53.964Z,1009.98
2023-05-05T04:06:53.939Z,1009.99
2023-05-05T04:07:54.164Z,1010.01
2023-05-05T04:08:53.964Z,1010.02
2023-05-05T04:09:53.898Z,1010.03
2023-05-05T04:10:53.907Z,1010.03
2023-05-05T04:11:53.856Z,1010.02
2023-05-05T04:12:54.680Z,1009.99
2023-05-05T04:13:53.851Z,1009.96
2023-05-05T04:14:55.577Z,1009.95
2023-05-05T04:15:54.090Z,1009.93
2023-05-05T04:16:53.886Z,1009.93
2023-05-05T04:17:53.907Z,1009.94
2023-05-05T04:18:53.810Z,1009.95
2023-05-05T04:19:54.370Z,1009.96
2023-05-05T04:20:53.811Z,1009.96
2023-05-05T04:21:53.757Z,1009.97
2023-05-05T04:22:54.295Z,1009.98
2023-05-05T04:23:53.802Z,1009.99
2023-05-05T04:24:53.710Z,1009.99
2023-05-05T04:25:53.720Z,1009.99
2023-05-05T04:26:53.703Z,1010.00
2023-05-05T04:27:53.921Z,1010.01
2023-05-05T04:28:55.673Z,1010.03
2023-05-05T04:29:53.684Z,1010.03
2023-05-05T04:30:53.751Z,1010.04
2023-05-05T04:31:53.712Z,1010.05
2023-05-05T04:32:53.777Z,1010.04
2023-05-05T04:33:53.869Z,1010.06
2023-05-05T04:34:53.643Z,1010.05
2023-05-05T04:35:53.619Z,1010.04
2023-05-05T04:36:53.635Z,1010.04
2023-05-05T04:37:53.627Z,1010.06
2023-05-05T04:38:53.598Z,1010.07
2023-05-05T04:39:53.577Z,1010.09
2023-05-05T04:40:53.965Z,1010.10
2023-05-05T04:41:53.552Z,1010.12
2023-05-05T04:42:57.580Z,1010.16
2023-05-05T04:43:53.539Z,1010.20
2023-05-05T04:44:53.667Z,1010.25
2023-05-05T04:45:53.550Z,1010.26
2023-05-05T04:46:53.612Z,1010.29
2023-05-05T04:47:53.726Z,1010.28
2023-05-05T04:48:53.480Z,1010.27
2023-05-05T04:49:53.496Z,1010.29
2023-05-05T04:50:53.609Z,1010.31
2023-05-05T04:51:53.435Z,1010.32
2023-05-05T04:52:53.457Z,1010.31
2023-05-05T04:53:53.425Z,1010.32
2023-05-05T04:54:53.592Z,1010.31
2023-05-05T04:55:55.317Z,1010.33
2023-05-05T04:56:53.966Z,1010.32
2023-05-05T04:57:53.509Z,1010.32
2023-05-05T04:58:53.451Z,1010.29
2023-05-05T04:59:53.378Z,1010.31
2023-05-05T05:00:53.577Z,1010.36
2023-05-05T05:01:53.401Z,1010.36
2023-05-05T05:02:53.499Z,1010.38
2023-05-05T05:03:53.574Z,1010.41
2023-05-05T05:04:53.357Z,1010.44
2023-05-05T05:05:53.335Z,1010.44
2023-05-05T05:06:53.318Z,1010.48
2023-05-05T05:07:53.345Z,1010.50
2023-05-05T05:08:53.267Z,1010.52
2023-05-05T05:09:53.474Z,1010.55
2023-05-05T05:10:53.249Z,1010.56
2023-05-05T05:11:53.318Z,1010.56
2023-05-05T05:12:53.231Z,1010.57
2023-05-05T05:13:53.243Z,1010.59
2023-05-05T05:14:53.368Z,1010.58
2023-05-05T05:15:53.224Z,1010.59
2023-05-05T05:16:53.245Z,1010.61
2023-05-05T05:17:53.205Z,1010.63
2023-05-05T05:18:53.137Z,1010.65
2023-05-05T05:19:53.148Z,1010.66
2023-05-05T05:20:53.141Z,1010.67
2023-05-05T05:21:53.337Z,1010.67
2023-05-05T05:22:53.130Z,1010.66
2023-05-05T05:23:53.386Z,1010.65
2023-05-05T05:24:53.074Z,1010.67
2023-05-05T05:25:53.099Z,1010.67
2023-05-05T05:26:53.054Z,1010.69
2023-05-05T05:28:06.147Z,1010.72
2023-05-05T05:28:53.060Z,1010.73
2023-05-05T05:29:53.030Z,1010.76
2023-05-05T05:30:53.065Z,1010.78
2023-05-05T05:31:53.086Z,1010.79
2023-05-05T05:32:53.233Z,1010.80
2023-05-05T05:33:53.161Z,1010.77
2023-05-05T05:34:53.005Z,1010.76
2023-05-05T05:35:53.378Z,1010.76
2023-05-05T05:36:52.960Z,1010.77
2023-05-05T05:37:53.014Z,1010.79
2023-05-05T05:38:52.935Z,1010.81
2023-05-05T05:39:53.153Z,1010.81
2023-05-05T05:40:52.901Z,1010.81
2023-05-05T05:41:52.912Z,1010.81
2023-05-05T05:42:52.895Z,1010.83
2023-05-05T05:43:52.925Z,1010.84
2023-05-05T05:44:52.857Z,1010.84
2023-05-05T05:45:52.959Z,1010.85
2023-05-05T05:46:52.835Z,1010.85
2023-05-05T05:47:52.891Z,1010.86
2023-05-05T05:48:53.278Z,1010.87
2023-05-05T05:49:52.802Z,1010.88
2023-05-05T05:50:52.807Z,1010.91
2023-05-05T05:51:52.847Z,1010.92
2023-05-05T05:52:52.845Z,1010.92
2023-05-05T05:53:52.785Z,1010.93
2023-05-05T05:54:52.757Z,1010.93
2023-05-05T05:55:52.816Z,1010.95
2023-05-05T05:56:52.776Z,1010.97
2023-05-05T05:57:52.763Z,1010.97
2023-05-05T05:58:52.907Z,1010.98
2023-05-05T05:59:52.726Z,1010.98
2023-05-05T06:00:52.689Z,1010.99
2023-05-05T06:01:52.738Z,1010.99
2023-05-05T06:02:52.786Z,1010.98
2023-05-05T06:03:52.903Z,1010.99
2023-05-05T06:04:52.669Z,1011.01
2023-05-05T06:05:52.704Z,1011.03
2023-05-05T06:06:52.736Z,1011.05
2023-05-05T06:07:52.629Z,1011.07
2023-05-05T06:08:52.616Z,1011.08
2023-05-05T06:09:52.662Z,1011.08
2023-05-05T06:10:52.635Z,1011.08
2023-05-05T06:11:52.573Z,1011.08
2023-05-05T06:12:52.720Z,1011.07
2023-05-05T06:13:52.571Z,1011.07
2023-05-05T06:14:52.534Z,1011.08
2023-05-05T06:15:52.565Z,1011.09
2023-05-05T06:16:53.363Z,1011.11
2023-05-05T06:17:52.542Z,1011.10
2023-05-05T06:18:52.497Z,1011.10
2023-05-05T06:19:54.437Z,1011.12
2023-05-05T06:20:52.527Z,1011.11
2023-05-05T06:21:52.493Z,1011.12
2023-05-05T06:22:52.455Z,1011.10
2023-05-05T06:23:52.453Z,1011.10
2023-05-05T06:24:52.458Z,1011.11
2023-05-05T06:25:52.466Z,1011.12
2023-05-05T06:26:52.399Z,1011.10
2023-05-05T06:27:52.439Z,1011.09
2023-05-05T06:28:52.386Z,1011.07
2023-05-05T06:29:52.409Z,1011.07
2023-05-05T06:30:52.381Z,1011.07
2023-05-05T06:31:52.500Z,1011.05
2023-05-05T06:32:52.338Z,1011.03
2023-05-05T06:33:52.386Z,1011.02
2023-05-05T06:34:52.399Z,1010.99
2023-05-05T06:35:52.319Z,1010.97
2023-05-05T06:36:52.428Z,1010.97
2023-05-05T06:37:52.296Z,1010.96
2023-05-05T06:38:52.321Z,1010.96
2023-05-05T06:39:52.301Z,1010.94
2023-05-05T06:40:52.277Z,1010.92
2023-05-05T06:41:52.255Z,1010.91
2023-05-05T06:42:52.236Z,1010.90
2023-05-05T06:43:52.256Z,1010.91
2023-05-05T06:44:52.262Z,1010.92
2023-05-05T06:45:52.305Z,1010.95
2023-05-05T06:46:52.234Z,1010.94
2023-05-05T06:47:52.380Z,1010.95
2023-05-05T06:48:52.217Z,1010.95
2023-05-05T06:49:52.241Z,1010.95
2023-05-05T06:50:52.169Z,1010.95
2023-05-05T06:51:52.142Z,1010.96
2023-05-05T06:52:52.214Z,1010.99
2023-05-05T06:53:52.200Z,1011.00
2023-05-05T06:54:52.130Z,1011.00
2023-05-05T06:55:52.133Z,1011.02
2023-05-05T06:56:52.078Z,1011.03
2023-05-05T06:57:52.159Z,1011.04
2023-05-05T06:58:52.127Z,1011.07
2023-05-05T06:59:52.080Z,1011.08
2023-05-05T07:00:52.093Z,1011.09
2023-05-05T07:01:52.083Z,1011.10
2023-05-05T07:02:52.909Z,1011.12
2023-05-05T07:03:52.069Z,1011.11
2023-05-05T07:04:52.045Z,1011.10
2023-05-05T07:05:52.094Z,1011.09
2023-05-05T07:06:52.889Z,1011.10
2023-05-05T07:07:52.055Z,1011.11
2023-05-05T07:08:52.003Z,1011.12
2023-05-05T07:09:51.990Z,1011.14
2023-05-05T07:10:51.949Z,1011.13
2023-05-05T07:11:51.981Z,1011.12
2023-05-05T07:12:51.981Z,1011.14
2023-05-05T07:13:51.947Z,1011.13
2023-05-05T07:14:51.988Z,1011.14
2023-05-05T07:15:51.970Z,1011.13
2023-05-05T07:16:51.935Z,1011.14
2023-05-05T07:17:52.023Z,1011.18
2023-05-05T07:18:51.880Z,1011.19
2023-05-05T07:19:51.869Z,1011.23
2023-05-05T07:20:51.880Z,1011.25
2023-05-05T07:21:51.899Z,1011.28
2023-05-05T07:22:51.921Z,1011.31
2023-05-05T07:23:52.031Z,1011.31
2023-05-05T07:24:51.822Z,1011.33
2023-05-05T07:25:51.813Z,1011.35
2023-05-05T07:26:51.817Z,1011.36
2023-05-05T07:27:51.809Z,1011.39
2023-05-05T07:28:51.774Z,1011.40
2023-05-05T07:29:51.734Z,1011.41
2023-05-05T07:30:51.775Z,1011.41
2023-05-05T07:31:51.861Z,1011.43
2023-05-05T07:32:51.889Z,1011.45
2023-05-05T07:33:51.708Z,1011.46
2023-05-05T07:34:51.680Z,1011.49
2023-05-05T07:35:51.716Z,1011.50
2023-05-05T07:36:51.781Z,1011.49
2023-05-05T07:37:51.669Z,1011.50
2023-05-05T07:38:51.708Z,1011.52
2023-05-05T07:39:51.674Z,1011.52
2023-05-05T07:40:52.273Z,1011.50
2023-05-05T07:41:51.715Z,1011.51
2023-05-05T07:42:51.609Z,1011.51
2023-05-05T07:43:51.598Z,1011.51
2023-05-05T07:44:51.648Z,1011.52
2023-05-05T07:45:52.434Z,1011.51
2023-05-05T07:46:51.571Z,1011.51
2023-05-05T07:47:51.637Z,1011.53
2023-05-05T07:48:51.597Z,1011.53
2023-05-05T07:49:51.570Z,1011.53
2023-05-05T07:50:51.529Z,1011.55
2023-05-05T07:51:51.525Z,1011.56
2023-05-05T07:52:56.349Z,1011.59
2023-05-05T07:53:51.536Z,1011.59
2023-05-05T07:54:51.544Z,1011.61
2023-05-05T07:55:51.493Z,1011.62
2023-05-05T07:56:51.454Z,1011.61
2023-05-05T07:57:51.429Z,1011.63
2023-05-05T07:58:51.465Z,1011.63
2023-05-05T07:59:51.476Z,1011.62
2023-05-05T08:00:51.411Z,1011.60
2023-05-05T08:01:53.130Z,1011.60
2023-05-05T08:02:51.517Z,1011.64
2023-05-05T08:03:51.463Z,1011.65
2023-05-05T08:04:51.389Z,1011.63
2023-05-05T08:05:51.835Z,1011.63
2023-05-05T08:06:51.339Z,1011.63
2023-05-05T08:07:51.374Z,1011.64
2023-05-05T08:08:51.329Z,1011.64
2023-05-05T08:09:51.319Z,1011.66
2023-05-05T08:10:51.316Z,1011.66
2023-05-05T08:11:51.303Z,1011.64
2023-05-05T08:12:51.362Z,1011.65
2023-05-05T08:13:51.291Z,1011.68
2023-05-05T08:14:51.281Z,1011.68
2023-05-05T08:15:51.288Z,1011.70
2023-05-05T08:16:51.225Z,1011.69
2023-05-05T08:17:51.515Z,1011.72
2023-05-05T08:18:51.230Z,1011.72
2023-05-05T08:19:51.230Z,1011.73
2023-05-05T08:20:51.285Z,1011.75
2023-05-05T08:21:51.194Z,1011.75
2023-05-05T08:22:51.230Z,1011.75
2023-05-05T08:23:51.182Z,1011.75
2023-05-05T08:24:51.161Z,1011.75
2023-05-05T08:25:51.231Z,1011.76
2023-05-05T08:26:51.164Z,1011.77
2023-05-05T08:27:51.207Z,1011.74
2023-05-05T08:28:51.134Z,1011.77
2023-05-05T08:29:51.107Z,1011.78
2023-05-05T08:30:51.095Z,1011.80
2023-05-05T08:31:51.173Z,1011.80
2023-05-05T08:32:51.119Z,1011.82
2023-05-05T08:33:51.069Z,1011.84
2023-05-05T08:34:51.059Z,1011.84
2023-05-05T08:35:51.087Z,1011.82
2023-05-05T08:36:51.055Z,1011.82
2023-05-05T08:37:51.343Z,1011.81
2023-05-05T08:38:51.031Z,1011.81
2023-05-05T08:39:51.015Z,1011.82
2023-05-05T08:40:51.058Z,1011.82
2023-05-05T08:41:51.004Z,1011.82
2023-05-05T08:42:50.979Z,1011.81
2023-05-05T08:43:50.959Z,1011.82
2023-05-05T08:44:50.989Z,1011.82
2023-05-05T08:45:50.959Z,1011.81
2023-05-05T08:46:51.029Z,1011.80
2023-05-05T08:47:50.977Z,1011.81
2023-05-05T08:48:50.938Z,1011.82
2023-05-05T08:49:50.901Z,1011.83
2023-05-05T08:50:51.116Z,1011.84
2023-05-05T08:51:50.865Z,1011.85
2023-05-05T08:52:51.344Z,1011.85
2023-05-05T08:53:50.941Z,1011.83
2023-05-05T08:54:50.841Z,1011.82
2023-05-05T08:55:50.852Z,1011.82
2023-05-05T08:56:50.834Z,1011.82
2023-05-05T08:57:50.804Z,1011.83
2023-05-05T08:58:50.868Z,1011.81
2023-05-05T08:59:50.848Z,1011.80
2023-05-05T09:00:50.900Z,1011.80
2023-05-05T09:01:50.871Z,1011.80
2023-05-05T09:02:50.942Z,1011.78
2023-05-05T09:03:50.757Z,1011.78
2023-05-05T09:04:50.929Z,1011.78
2023-05-05T09:05:50.790Z,1011.80
2023-05-05T09:06:51.400Z,1011.79
2023-05-05T09:07:50.952Z,1011.78
2023-05-05T09:08:50.845Z,1011.78
2023-05-05T09:09:50.712Z,1011.79
2023-05-05T09:10:50.733Z,1011.78
2023-05-05T09:11:50.737Z,1011.78
2023-05-05T09:12:51.670Z,1011.76
2023-05-05T09:13:50.661Z,1011.77
2023-05-05T09:14:50.645Z,1011.74
2023-05-05T09:15:50.631Z,1011.75
2023-05-05T09:16:50.696Z,1011.74
2023-05-05T09:17:50.695Z,1011.74
2023-05-05T09:18:50.630Z,1011.72
2023-05-05T09:19:50.652Z,1011.71
2023-05-05T09:20:50.681Z,1011.71
2023-05-05T09:21:50.658Z,1011.69
2023-05-05T09:22:50.644Z,1011.70
2023-05-05T09:23:50.546Z,1011.68
2023-05-05T09:24:50.595Z,1011.68
2023-05-05T09:25:50.552Z,1011.69
2023-05-05T09:26:50.550Z,1011.69
2023-05-05T09:27:50.827Z,1011.68
2023-05-05T09:28:50.509Z,1011.68
2023-05-05T09:29:50.571Z,1011.68
2023-05-05T09:30:52.703Z,1011.69
2023-05-05T09:31:50.695Z,1011.67
2023-05-05T09:32:50.531Z,1011.69
2023-05-05T09:33:50.449Z,1011.70
2023-05-05T09:34:51.240Z,1011.72
2023-05-05T09:35:50.443Z,1011.73
2023-05-05T09:36:51.447Z,1011.76
2023-05-05T09:37:50.505Z,1011.76
2023-05-05T09:38:50.470Z,1011.77
2023-05-05T09:39:50.475Z,1011.77
2023-05-05T09:40:50.366Z,1011.80
2023-05-05T09:41:50.333Z,1011.77
2023-05-05T09:42:50.446Z,1011.77
2023-05-05T09:43:50.374Z,1011.77
2023-05-05T09:44:50.397Z,1011.78
2023-05-05T09:45:50.348Z,1011.79
2023-05-05T09:46:50.782Z,1011.79
2023-05-05T09:47:50.588Z,1011.79
2023-05-05T09:48:50.559Z,1011.77
2023-05-05T09:49:50.348Z,1011.77
2023-05-05T09:50:50.288Z,1011.76
2023-05-05T09:51:50.300Z,1011.77
2023-05-05T09:52:50.282Z,1011.79
2023-05-05T09:53:50.236Z,1011.81
2023-05-05T09:54:50.236Z,1011.85
2023-05-05T09:55:50.359Z,1011.85
2023-05-05T09:56:50.212Z,1011.85
2023-05-05T09:57:50.357Z,1011.85
2023-05-05T09:58:50.237Z,1011.85
2023-05-05T09:59:50.196Z,1011.80
2023-05-05T10:00:50.159Z,1011.75
2023-05-05T10:01:50.221Z,1011.73
2023-05-05T10:02:50.158Z,1011.74
2023-05-05T10:03:50.177Z,1011.73
2023-05-05T10:04:50.182Z,1011.74
2023-05-05T10:05:50.213Z,1011.75
2023-05-05T10:06:50.245Z,1011.73
2023-05-05T10:07:50.124Z,1011.74
2023-05-05T10:08:50.107Z,1011.71
2023-05-05T10:09:50.239Z,1011.68
2023-05-05T10:10:50.142Z,1011.69
2023-05-05T10:11:50.136Z,1011.67
2023-05-05T10:12:50.130Z,1011.69
2023-05-05T10:13:50.064Z,1011.70
2023-05-05T10:14:50.085Z,1011.71
2023-05-05T10:15:50.122Z,1011.73
2023-05-05T10:16:50.040Z,1011.75
2023-05-05T10:18:06.062Z,1011.76
2023-05-05T10:18:50.150Z,1011.77
2023-05-05T10:19:49.996Z,1011.77
2023-05-05T10:20:50.054Z,1011.76
2023-05-05T10:21:50.097Z,1011.76
2023-05-05T10:22:50.000Z,1011.77
2023-05-05T10:23:50.128Z,1011.76
2023-05-05T10:24:49.956Z,1011.76
2023-05-05T10:25:49.924Z,1011.74
2023-05-05T10:26:50.035Z,1011.74
2023-05-05T10:27:49.880Z,1011.75
2023-05-05T10:28:49.885Z,1011.75
2023-05-05T10:29:49.913Z,1011.76
2023-05-05T10:30:49.866Z,1011.75
2023-05-05T10:31:49.938Z,1011.76
2023-05-05T10:32:54.410Z,1011.75
2023-05-05T10:33:50.070Z,1011.75
2023-05-05T10:34:49.801Z,1011.74
2023-05-05T10:35:49.792Z,1011.73
2023-05-05T10:36:49.815Z,1011.73
2023-05-05T10:37:49.818Z,1011.72
2023-05-05T10:38:49.771Z,1011.69
2023-05-05T10:39:49.718Z,1011.67
2023-05-05T10:40:49.746Z,1011.65
2023-05-05T10:41:49.879Z,1011.63
2023-05-05T10:42:49.848Z,1011.60
2023-05-05T10:43:49.704Z,1011.55
2023-05-05T10:44:49.718Z,1011.55
2023-05-05T10:45:49.811Z,1011.52
2023-05-05T10:46:49.739Z,1011.47
2023-05-05T10:47:49.776Z,1011.45
2023-05-05T10:48:49.696Z,1011.41
2023-05-05T10:49:50.381Z,1011.36
2023-05-05T10:50:49.643Z,1011.33
2023-05-05T10:51:49.669Z,1011.33
2023-05-05T10:52:49.785Z,1011.34
2023-05-05T10:53:49.665Z,1011.32
2023-05-05T10:54:49.744Z,1011.34
2023-05-05T10:55:49.592Z,1011.35
2023-05-05T10:56:49.645Z,1011.34
2023-05-05T10:57:49.662Z,1011.34
2023-05-05T10:58:59.848Z,1011.31
2023-05-05T10:59:49.597Z,1011.29
2023-05-05T11:00:49.610Z,1011.28
2023-05-05T11:01:49.651Z,1011.28
2023-05-05T11:02:49.597Z,1011.30
2023-05-05T11:03:49.644Z,1011.30
2023-05-05T11:04:49.558Z,1011.26
2023-05-05T11:05:49.566Z,1011.23
2023-05-05T11:06:49.481Z,1011.20
2023-05-05T11:07:49.573Z,1011.17
2023-05-05T11:08:49.492Z,1011.15
2023-05-05T11:09:49.463Z,1011.13
2023-05-05T11:10:49.463Z,1011.13
2023-05-05T11:12:10.421Z,1011.12
2023-05-05T11:12:49.429Z,1011.10
2023-05-05T11:13:50.083Z,1011.10
2023-05-05T11:14:49.475Z,1011.09
2023-05-05T11:15:49.426Z,1011.08
2023-05-05T11:16:49.392Z,1011.05
2023-05-05T11:17:49.563Z,1011.04
2023-05-05T11:18:49.438Z,1011.01
2023-05-05T11:19:49.372Z,1010.98
2023-05-05T11:20:49.380Z,1010.95
2023-05-05T11:21:49.424Z,1010.93
2023-05-05T11:22:49.299Z,1010.91
2023-05-05T11:23:49.480Z,1010.89
2023-05-05T11:24:49.347Z,1010.87
2023-05-05T11:25:49.330Z,1010.87
2023-05-05T11:26:49.248Z,1010.85
2023-05-05T11:27:49.310Z,1010.84
2023-05-05T11:28:49.263Z,1010.83
2023-05-05T11:29:51.924Z,1010.81
2023-05-05T11:30:49.233Z,1010.79
2023-05-05T11:31:49.215Z,1010.77
2023-05-05T11:32:49.259Z,1010.76
2023-05-05T11:33:49.422Z,1010.74
2023-05-05T11:34:49.177Z,1010.73
2023-05-05T11:35:49.188Z,1010.73
2023-05-05T11:36:49.150Z,1010.71
2023-05-05T11:37:49.180Z,1010.70
2023-05-05T11:38:49.156Z,1010.69
2023-05-05T11:39:49.110Z,1010.67
2023-05-05T11:40:49.157Z,1010.66
2023-05-05T11:41:49.112Z,1010.65
2023-05-05T11:42:49.106Z,1010.63
2023-05-05T11:43:49.080Z,1010.62
2023-05-05T11:44:49.121Z,1010.60
2023-05-05T11:45:49.110Z,1010.59
2023-05-05T11:46:49.062Z,1010.59
2023-05-05T11:47:49.179Z,1010.59
2023-05-05T11:48:49.018Z,1010.58
2023-05-05T11:49:49.021Z,1010.57
2023-05-05T11:50:49.051Z,1010.57
2023-05-05T11:51:49.017Z,1010.58
2023-05-05T11:52:48.996Z,1010.60
2023-05-05T11:53:48.982Z,1010.59
2023-05-05T11:54:49.020Z,1010.61
2023-05-05T11:55:49.027Z,1010.59
2023-05-05T11:56:48.968Z,1010.58
2023-05-05T11:57:48.984Z,1010.58
2023-05-05T11:58:48.962Z,1010.58
2023-05-05T11:59:49.653Z,1010.59
2023-05-05T12:00:48.890Z,1010.59
2023-05-05T12:01:48.902Z,1010.59
2023-05-05T12:02:49.002Z,1010.59
2023-05-05T12:03:49.099Z,1010.61
2023-05-05T12:04:49.066Z,1010.63
2023-05-05T12:05:48.848Z,1010.64